createdAt,value
2023-03-28T00:03:19.835Z,1022.53
2023-03-28T00:13:20.142Z,1022.54
2023-03-28T00:23:20.118Z,1022.68
2023-03-28T00:33:20.335Z,1022.70
2023-03-28T00:43:20.541Z,1022.72
2023-03-28T00:53:20.745Z,1022.79
2023-03-28T01:03:21.001Z,1022.81
2023-03-28T01:13:21.243Z,1022.84
2023-03-28T01:23:21.286Z,1022.86
2023-03-28T01:33:21.517Z,1022.86
2023-03-28T01:43:21.723Z,1022.94
2023-03-28T01:53:21.924Z,1022.84
2023-03-28T02:03:22.177Z,1022.85
2023-03-28T02:13:22.363Z,1022.89
2023-03-28T02:23:22.573Z,1022.79
2023-03-28T02:33:22.788Z,1022.87
2023-03-28T02:43:22.986Z,1023.10
2023-03-28T02:53:23.197Z,1023.17
2023-03-28T03:03:23.576Z,1023.31
2023-03-28T03:13:23.640Z,1023.42
2023-03-28T03:23:23.836Z,1023.37
2023-03-28T03:33:24.085Z,1023.20
2023-03-28T03:43:24.300Z,1023.05
2023-03-28T03:53:24.506Z,1023.06
2023-03-28T04:03:25.612Z,1023.07
2023-03-28T04:13:24.921Z,1023.04
2023-03-28T04:23:25.107Z,1023.04
2023-03-28T04:33:25.342Z,1023.21
2023-03-28T04:43:25.533Z,1023.31
2023-03-28T04:53:25.738Z,1023.40
2023-03-28T05:03:26.107Z,1023.48
2023-03-28T05:13:26.131Z,1023.54
2023-03-28T05:23:26.329Z,1023.68
2023-03-28T05:33:26.543Z,1023.77
2023-03-28T05:43:26.759Z,1023.80
2023-03-28T05:53:26.989Z,1023.90
2023-03-28T06:03:27.210Z,1024.02
2023-03-28T06:13:27.397Z,1024.03
2023-03-28T06:23:27.604Z,1024.17
2023-03-28T06:33:27.814Z,1024.22
2023-03-28T06:43:28.013Z,1024.29
2023-03-28T06:53:28.235Z,1024.28
2023-03-28T07:03:28.476Z,1024.40
2023-03-28T07:13:28.661Z,1024.52
2023-03-28T07:23:28.869Z,1024.67
2023-03-28T07:33:36.227Z,1024.62
2023-03-28T07:43:30.324Z,1024.57
2023-03-28T07:53:29.540Z,1024.59
2023-03-28T08:03:29.821Z,1024.66
2023-03-28T08:13:29.901Z,1024.68
2023-03-28T08:23:30.150Z,1024.64
2023-03-28T08:33:30.338Z,1024.61
2023-03-28T08:43:30.559Z,1024.62
2023-03-28T08:53:30.758Z,1024.57
2023-03-28T09:03:31.041Z,1024.56
2023-03-28T09:13:31.054Z,1024.61
2023-03-28T09:23:31.250Z,1024.47
2023-03-28T09:33:31.437Z,1024.44
2023-03-28T09:43:31.646Z,1024.37
2023-03-28T09:53:33.230Z,1024.33
2023-03-28T10:03:32.025Z,1024.11
2023-03-28T10:13:32.207Z,1024.08
2023-03-28T10:23:32.420Z,1024.01
2023-03-28T10:33:33.691Z,1023.98
2023-03-28T10:43:32.871Z,1023.92
2023-03-28T10:53:33.077Z,1023.77
2023-03-28T11:03:33.374Z,1023.66
2023-03-28T11:13:34.374Z,1023.51
2023-03-28T11:23:35.539Z,1023.40
2023-03-28T11:33:33.660Z,1023.24
2023-03-28T11:43:33.871Z,1023.18
2023-03-28T11:53:34.083Z,1023.05
2023-03-28T12:03:34.424Z,1022.94
2023-03-28T12:13:41.674Z,1022.87
2023-03-28T12:23:35.710Z,1022.59
2023-03-28T12:33:34.935Z,1022.48
2023-03-28T12:43:35.150Z,1022.33
2023-03-28T12:53:35.459Z,1022.23
2023-03-28T13:03:35.459Z,1022.07
2023-03-28T13:13:35.657Z,1021.92
2023-03-28T13:23:35.886Z,1021.77
2023-03-28T13:33:36.097Z,1021.72
2023-03-28T13:43:36.328Z,1021.68
2023-03-28T13:53:47.126Z,1021.51
2023-03-28T14:03:38.587Z,1021.36
2023-03-28T14:13:36.971Z,1021.29
2023-03-28T14:23:37.179Z,1021.22
2023-03-28T14:33:37.586Z,1021.11
2023-03-28T14:43:37.643Z,1020.97
2023-03-28T14:53:37.884Z,1020.93
2023-03-28T15:03:38.208Z,1020.75
2023-03-28T15:13:38.345Z,1020.59
2023-03-28T15:23:38.368Z,1020.71
2023-03-28T15:33:38.572Z,1020.52
2023-03-28T15:43:38.775Z,1020.59
2023-03-28T15:53:38.967Z,1020.46
2023-03-28T16:03:39.230Z,1020.35
2023-03-28T16:13:39.446Z,1020.35
2023-03-28T16:23:39.636Z,1020.12
2023-03-28T16:33:39.887Z,1020.17
2023-03-28T16:43:39.876Z,1020.18
2023-03-28T16:53:40.226Z,1020.26
2023-03-28T17:03:40.308Z,1020.21
2023-03-28T17:13:40.728Z,1020.18
2023-03-28T17:23:40.608Z,1020.12
2023-03-28T17:33:40.994Z,1020.12
2023-03-28T17:43:41.144Z,1020.20
2023-03-28T17:53:41.492Z,1020.13
2023-03-28T18:03:41.847Z,1020.15
2023-03-28T18:13:42.534Z,1020.04
2023-03-28T18:23:43.405Z,1019.97
2023-03-28T18:33:41.961Z,1019.91
2023-03-28T18:43:42.184Z,1019.95
2023-03-28T18:53:42.174Z,1019.93
2023-03-28T19:03:42.622Z,1019.71
2023-03-28T19:13:42.445Z,1019.71
2023-03-28T19:23:42.603Z,1019.75
2023-03-28T19:33:42.822Z,1019.72
2023-03-28T19:43:43.029Z,1019.54
2023-03-28T19:53:43.239Z,1019.37
2023-03-28T20:03:43.372Z,1019.38
2023-03-28T20:13:43.556Z,1019.41
2023-03-28T20:23:43.463Z,1019.65
2023-03-28T20:33:43.648Z,1019.68
2023-03-28T20:43:43.911Z,1019.91
2023-03-28T20:53:44.107Z,1019.67
2023-03-28T21:03:44.312Z,1019.79
2023-03-28T21:13:44.522Z,1019.58
2023-03-28T21:23:44.722Z,1019.83
2023-03-28T21:33:44.940Z,1019.86
2023-03-28T21:43:45.147Z,1019.92
2023-03-28T21:53:45.332Z,1019.59
2023-03-28T22:03:45.634Z,1019.63
2023-03-28T22:13:45.671Z,1019.73
2023-03-28T22:23:46.995Z,1019.79
2023-03-28T22:33:46.148Z,1019.61
2023-03-28T22:43:46.377Z,1019.51
2023-03-28T22:53:46.574Z,1019.12
2023-03-28T23:03:46.774Z,1019.11
2023-03-28T23:13:47.006Z,1019.50
2023-03-28T23:23:47.201Z,1019.66
2023-03-28T23:33:47.398Z,1019.74
2023-03-28T23:43:47.606Z,1019.38
2023-03-28T23:53:47.833Z,1019.46
